Portada
METAR-TAF:

METAR-TAF

Aeroports :

Kōchi, Japó

latitud: 33-32N, longitud: 133-40E, altitud: 7 m

Observació

L'informe es va fer fa 16 minuts, a les 10:00 UTC
Vent 7 kt del Nord
Temperatura 10°C
Humitat 46%
Pressió 1027 hPa
Visibilitat 10 km o més
sense núvols per sota de 1500 mi sense presència de cumulonimbus.

METAR: RJOK 271000Z 36007KT CAVOK 10/M01 Q1027

Hora: 19:16 (10:16 UTC)

Pronòstic

L'informe es va fer fa 5 hores i 8 minuts, a les 05:08 UTC
Pronòstic vàlid del 27 a les 06 UTC al 28 a les 12 UTC
Vent 7 kt del Sud/Sud-Est
Visibilitat 10 km o més
Escasses núvols a una alçada de 3500 ft
Evolucionant progressivament
l' 27 a les 07 UTC al 27 a les 09 UTC
Vent 8 kt del Nord
Evolucionant progressivament
l' 28 a les 00 UTC al 28 a les 03 UTC
Vent 14 kt del Sud-Est
Evolucionant progressivament
l' 28 a les 09 UTC al 28 a les 12 UTC
Vent 7 kt del Nord

TAF: RJOK 270508Z 2706/2812 15007KT 9999 FEW035 BECMG 2707/2709 35008KT BECMG 2800/2803 14014KT BECMG 2809/2812 35007KT

Observacions i pronòstics meteorològics de més de 4000 aeroports (METAR i TAF).

Les estacions disponibles són els punts grocs i vermells al mapa.

Posi el ratolí al punt desitjat per veure el nom de l'estació.

Feu clic per veure les observacions i els pronòstics meteorològics.

Per canviar el mapa: feu clic els botons verds amb una creu de color negre per apropar; al botó verd amb un guió per allunyar la imatge; o en les fletxes verdes per a mapes adjacents.


METAR-TAF: